sensor_id;sensor_type;location;lat;lon;timestamp;pressure;altitude;pressure_sealevel;temperature;humidity
48035;BME280;33812;46.480;6.834;2023-03-11T00:03:12;92738.28;;;18.66;35.67
48035;BME280;33812;46.480;6.834;2023-03-11T00:07:14;92737.50;;;18.66;35.90
48035;BME280;33812;46.480;6.834;2023-03-11T00:11:16;92730.47;;;18.65;35.86
48035;BME280;33812;46.480;6.834;2023-03-11T00:15:19;92737.63;;;18.62;36.34
48035;BME280;33812;46.480;6.834;2023-03-11T00:19:22;92722.78;;;18.59;36.25
48035;BME280;33812;46.480;6.834;2023-03-11T00:23:24;92720.34;;;18.61;36.05
48035;BME280;33812;46.480;6.834;2023-03-11T00:27:26;92711.78;;;18.59;36.01
48035;BME280;33812;46.480;6.834;2023-03-11T00:31:28;92703.81;;;18.61;36.24
48035;BME280;33812;46.480;6.834;2023-03-11T00:35:33;92720.66;;;18.64;36.03
48035;BME280;33812;46.480;6.834;2023-03-11T00:39:35;92718.69;;;18.64;36.27
48035;BME280;33812;46.480;6.834;2023-03-11T00:43:36;92724.84;;;18.68;36.51
48035;BME280;33812;46.480;6.834;2023-03-11T00:47:38;92734.75;;;18.66;36.23
48035;BME280;33812;46.480;6.834;2023-03-11T00:51:41;92752.78;;;18.67;36.24
48035;BME280;33812;46.480;6.834;2023-03-11T00:55:44;92736.72;;;18.65;36.28
48035;BME280;33812;46.480;6.834;2023-03-11T00:59:45;92740.59;;;18.68;36.32
48035;BME280;33812;46.480;6.834;2023-03-11T01:03:47;92729.56;;;18.68;36.46
48035;BME280;33812;46.480;6.834;2023-03-11T01:07:50;92731.09;;;18.69;36.30
48035;BME280;33812;46.480;6.834;2023-03-11T01:11:52;92730.34;;;18.68;36.53
48035;BME280;33812;46.480;6.834;2023-03-11T01:15:55;92731.09;;;18.69;36.66
48035;BME280;33812;46.480;6.834;2023-03-11T01:19:57;92740.59;;;18.68;36.57
48035;BME280;33812;46.480;6.834;2023-03-11T01:24:01;92734.63;;;18.69;36.91
48035;BME280;33812;46.480;6.834;2023-03-11T01:28:04;92733.84;;;18.69;36.61
48035;BME280;33812;46.480;6.834;2023-03-11T01:32:06;92727.16;;;18.70;36.67
48035;BME280;33812;46.480;6.834;2023-03-11T01:36:08;92724.72;;;18.72;36.72
48035;BME280;33812;46.480;6.834;2023-03-11T01:40:15;92692.44;;;18.72;36.67
48035;BME280;33812;46.480;6.834;2023-03-11T01:44:17;92694.44;;;18.72;36.91
48035;BME280;33812;46.480;6.834;2023-03-11T01:48:20;92687.72;;;18.73;36.73
48035;BME280;33812;46.480;6.834;2023-03-11T01:52:22;92672.84;;;18.70;36.73
48035;BME280;33812;46.480;6.834;2023-03-11T01:56:26;92659.09;;;18.70;37.05
48035;BME280;33812;46.480;6.834;2023-03-11T02:00:28;92645.97;;;18.75;36.89
48035;BME280;33812;46.480;6.834;2023-03-11T02:04:32;92610.66;;;18.73;36.69
48035;BME280;33812;46.480;6.834;2023-03-11T02:08:35;92602.06;;;18.71;37.18
48035;BME280;33812;46.480;6.834;2023-03-11T02:12:40;92612.94;;;18.75;36.96
48035;BME280;33812;46.480;6.834;2023-03-11T02:16:43;92629.91;;;18.73;36.92
48035;BME280;33812;46.480;6.834;2023-03-11T02:20:48;92631.56;;;18.70;37.04
48035;BME280;33812;46.480;6.834;2023-03-11T02:24:58;92619.34;;;18.71;37.02
48035;BME280;33812;46.480;6.834;2023-03-11T02:29:04;92633.91;;;18.72;36.70
48035;BME280;33812;46.480;6.834;2023-03-11T02:33:07;92620.56;;;18.70;37.24
48035;BME280;33812;46.480;6.834;2023-03-11T02:37:11;92606.03;;;18.70;37.06
48035;BME280;33812;46.480;6.834;2023-03-11T02:41:13;92595.78;;;18.70;37.18
48035;BME280;33812;46.480;6.834;2023-03-11T02:45:19;92601.28;;;18.70;37.19
48035;BME280;33812;46.480;6.834;2023-03-11T02:49:23;92615.38;;;18.72;36.92
48035;BME280;33812;46.480;6.834;2023-03-11T02:53:26;92632.66;;;18.73;37.23
48035;BME280;33812;46.480;6.834;2023-03-11T02:57:30;92639.41;;;18.72;37.09
48035;BME280;33812;46.480;6.834;2023-03-11T03:01:33;92617.06;;;18.70;36.90
48035;BME280;33812;46.480;6.834;2023-03-11T03:05:35;92602.38;;;18.73;37.21
48035;BME280;33812;46.480;6.834;2023-03-11T03:09:38;92568.13;;;18.74;36.88
48035;BME280;33812;46.480;6.834;2023-03-11T03:13:40;92578.41;;;18.73;37.26
48035;BME280;33812;46.480;6.834;2023-03-11T03:17:43;92565.09;;;18.72;36.96
48035;BME280;33812;46.480;6.834;2023-03-11T03:21:45;92555.59;;;18.73;37.01
48035;BME280;33812;46.480;6.834;2023-03-11T03:25:47;92555.59;;;18.73;37.28
48035;BME280;33812;46.480;6.834;2023-03-11T03:29:49;92552.84;;;18.73;37.24
48035;BME280;33812;46.480;6.834;2023-03-11T03:33:52;92542.16;;;18.75;36.91
48035;BME280;33812;46.480;6.834;2023-03-11T03:37:54;92527.16;;;18.76;36.87
48035;BME280;33812;46.480;6.834;2023-03-11T03:41:57;92508.81;;;18.73;37.04
48035;BME280;33812;46.480;6.834;2023-03-11T03:46:01;92515.84;;;18.74;37.00
48035;BME280;33812;46.480;6.834;2023-03-11T03:50:10;92517.84;;;18.73;37.44
48035;BME280;33812;46.480;6.834;2023-03-11T03:54:12;92504.09;;;18.73;36.98
48035;BME280;33812;46.480;6.834;2023-03-11T03:58:14;92524.41;;;18.76;37.27
48035;BME280;33812;46.480;6.834;2023-03-11T04:02:16;92499.66;;;18.76;37.32
48035;BME280;33812;46.480;6.834;2023-03-11T04:06:20;92491.06;;;18.74;37.27
48035;BME280;33812;46.480;6.834;2023-03-11T04:10:22;92492.63;;;18.75;37.57
48035;BME280;33812;46.480;6.834;2023-03-11T04:14:24;92489.09;;;18.75;37.25
48035;BME280;33812;46.480;6.834;2023-03-11T04:18:26;92468.16;;;18.77;37.11
48035;BME280;33812;46.480;6.834;2023-03-11T04:22:29;92502.41;;;18.76;37.38
48035;BME280;33812;46.480;6.834;2023-03-11T04:26:30;92488.63;;;18.76;37.25
48035;BME280;33812;46.480;6.834;2023-03-11T04:30:32;92494.91;;;18.77;37.16
48035;BME280;33812;46.480;6.834;2023-03-11T04:34:34;92489.41;;;18.77;38.55
48035;BME280;33812;46.480;6.834;2023-03-11T04:38:37;92506.25;;;18.79;39.13
48035;BME280;33812;46.480;6.834;2023-03-11T04:42:39;92492.03;;;18.80;39.59
48035;BME280;33812;46.480;6.834;2023-03-11T04:46:41;92466.94;;;18.78;40.34
48035;BME280;33812;46.480;6.834;2023-03-11T04:50:43;92527.81;;;18.80;40.41
48035;BME280;33812;46.480;6.834;2023-03-11T04:54:46;92523.50;;;18.79;40.18
48035;BME280;33812;46.480;6.834;2023-03-11T04:58:48;92495.09;;;18.82;40.20
48035;BME280;33812;46.480;6.834;2023-03-11T05:02:50;92500.59;;;18.82;40.21
48035;BME280;33812;46.480;6.834;2023-03-11T05:06:51;92490.00;;;18.81;39.97
48035;BME280;33812;46.480;6.834;2023-03-11T05:10:55;92515.09;;;18.83;39.97
48035;BME280;33812;46.480;6.834;2023-03-11T05:14:56;92483.31;;;18.82;39.70
48035;BME280;33812;46.480;6.834;2023-03-11T05:18:58;92494.78;;;18.80;39.63
48035;BME280;33812;46.480;6.834;2023-03-11T05:23:00;92511.28;;;18.80;39.66
48035;BME280;33812;46.480;6.834;2023-03-11T05:27:07;92502.72;;;18.78;39.69
48035;BME280;33812;46.480;6.834;2023-03-11T05:31:10;92503.94;;;18.77;39.67
48035;BME280;33812;46.480;6.834;2023-03-11T05:35:12;92513.41;;;18.76;39.82
48035;BME280;33812;46.480;6.834;2023-03-11T05:39:13;92509.13;;;18.75;39.18
48035;BME280;33812;46.480;6.834;2023-03-11T05:43:16;92521.66;;;18.76;39.24
48035;BME280;33812;46.480;6.834;2023-03-11T05:47:19;92521.97;;;18.78;39.64
48035;BME280;33812;46.480;6.834;2023-03-11T05:51:21;92511.44;;;18.77;39.47
48035;BME280;33812;46.480;6.834;2023-03-11T05:55:23;92520.75;;;18.79;38.89
48035;BME280;33812;46.480;6.834;2023-03-11T05:59:26;92527.81;;;18.80;39.06
48035;BME280;33812;46.480;6.834;2023-03-11T06:03:27;92523.81;;;18.81;38.99
48035;BME280;33812;46.480;6.834;2023-03-11T06:07:29;92528.13;;;18.82;39.04
48035;BME280;33812;46.480;6.834;2023-03-11T06:11:31;92541.88;;;18.82;39.08
48035;BME280;33812;46.480;6.834;2023-03-11T06:15:34;92553.31;;;18.81;38.61
48035;BME280;33812;46.480;6.834;2023-03-11T06:19:36;92553.31;;;18.81;38.88
48035;BME280;33812;46.480;6.834;2023-03-11T06:23:38;92551.34;;;18.81;38.74
48035;BME280;33812;46.480;6.834;2023-03-11T06:27:41;92560.84;;;18.80;38.56
48035;BME280;33812;46.480;6.834;2023-03-11T06:31:46;92560.56;;;18.88;39.34
48035;BME280;33812;46.480;6.834;2023-03-11T06:35:55;92553.50;;;18.87;39.38
48035;BME280;33812;46.480;6.834;2023-03-11T06:39:59;92545.84;;;18.81;38.79
48035;BME280;33812;46.480;6.834;2023-03-11T06:44:01;92559.28;;;18.79;39.06
48035;BME280;33812;46.480;6.834;2023-03-11T06:48:05;92558.25;;;18.86;39.09
48035;BME280;33812;46.480;6.834;2023-03-11T06:52:08;92551.66;;;18.83;39.40
48035;BME280;33812;46.480;6.834;2023-03-11T06:56:11;92537.59;;;18.81;38.95
48035;BME280;33812;46.480;6.834;2023-03-11T07:00:14;92542.63;;;18.83;40.82
48035;BME280;33812;46.480;6.834;2023-03-11T07:04:17;92542.19;;;18.84;40.81
48035;BME280;33812;46.480;6.834;2023-03-11T07:08:19;92540.97;;;18.85;40.85
48035;BME280;33812;46.480;6.834;2023-03-11T07:12:20;92555.50;;;18.86;41.54
48035;BME280;33812;46.480;6.834;2023-03-11T07:16:26;92563.63;;;18.90;42.07
48035;BME280;33812;46.480;6.834;2023-03-11T07:20:29;92550.63;;;18.90;41.15
48035;BME280;33812;46.480;6.834;2023-03-11T07:24:31;92541.31;;;18.97;42.30
48035;BME280;33812;46.480;6.834;2023-03-11T07:28:32;92541.78;;;18.95;42.97
48035;BME280;33812;46.480;6.834;2023-03-11T07:32:36;92549.25;;;18.95;42.82
48035;BME280;33812;46.480;6.834;2023-03-11T07:36:40;92575.41;;;18.90;42.44
48035;BME280;33812;46.480;6.834;2023-03-11T07:40:42;92573.09;;;18.89;42.53
48035;BME280;33812;46.480;6.834;2023-03-11T07:44:44;92565.47;;;18.93;42.59
48035;BME280;33812;46.480;6.834;2023-03-11T07:48:46;92576.34;;;18.96;43.57
48035;BME280;33812;46.480;6.834;2023-03-11T07:52:49;92578.78;;;18.94;43.17
48035;BME280;33812;46.480;6.834;2023-03-11T07:56:51;92590.25;;;18.93;42.60
48035;BME280;33812;46.480;6.834;2023-03-11T08:00:53;92602.16;;;18.90;42.52
48035;BME280;33812;46.480;6.834;2023-03-11T08:04:56;92588.09;;;18.88;42.45
48035;BME280;33812;46.480;6.834;2023-03-11T08:09:01;92596.50;;;18.93;42.31
48035;BME280;33812;46.480;6.834;2023-03-11T08:13:03;92601.56;;;18.95;42.26
48035;BME280;33812;46.480;6.834;2023-03-11T08:17:06;92607.53;;;18.93;42.42
48035;BME280;33812;46.480;6.834;2023-03-11T08:21:11;92621.75;;;18.92;42.07
48035;BME280;33812;46.480;6.834;2023-03-11T08:25:16;92635.84;;;18.94;41.31
48035;BME280;33812;46.480;6.834;2023-03-11T08:29:18;92667.03;;;18.91;41.54
48035;BME280;33812;46.480;6.834;2023-03-11T08:33:21;92659.09;;;18.93;41.24
48035;BME280;33812;46.480;6.834;2023-03-11T08:37:22;92686.91;;;18.95;40.74
48035;BME280;33812;46.480;6.834;2023-03-11T08:41:26;92705.91;;;18.93;40.55
48035;BME280;33812;46.480;6.834;2023-03-11T08:45:28;92730.69;;;18.93;40.57
48035;BME280;33812;46.480;6.834;2023-03-11T08:49:31;92733.44;;;18.93;40.53
48035;BME280;33812;46.480;6.834;2023-03-11T08:53:33;92726.38;;;18.92;40.45
48035;BME280;33812;46.480;6.834;2023-03-11T08:57:36;92746.41;;;18.92;40.50
48035;BME280;33812;46.480;6.834;2023-03-11T09:01:39;92737.38;;;18.92;40.14
48035;BME280;33812;46.480;6.834;2023-03-11T09:05:41;92726.38;;;18.92;39.60
48035;BME280;33812;46.480;6.834;2023-03-11T09:09:43;92722.09;;;18.91;39.69
48035;BME280;33812;46.480;6.834;2023-03-11T09:13:46;92731.88;;;18.92;40.21
48035;BME280;33812;46.480;6.834;2023-03-11T09:17:48;92742.88;;;18.92;40.50
48035;BME280;33812;46.480;6.834;2023-03-11T09:21:51;92745.63;;;18.92;40.96
48035;BME280;33812;46.480;6.834;2023-03-11T09:25:53;92756.97;;;18.94;41.20
48035;BME280;33812;46.480;6.834;2023-03-11T09:29:56;92755.75;;;18.95;41.23
48035;BME280;33812;46.480;6.834;2023-03-11T09:33:58;92752.69;;;18.93;40.84
48035;BME280;33812;46.480;6.834;2023-03-11T09:37:59;92756.97;;;18.94;41.51
48035;BME280;33812;46.480;6.834;2023-03-11T09:42:03;92758.09;;;18.96;41.35
48035;BME280;33812;46.480;6.834;2023-03-11T09:46:21;92771.06;;;18.96;41.87
48035;BME280;33812;46.480;6.834;2023-03-11T09:50:29;92757.31;;;18.96;42.67
48035;BME280;33812;46.480;6.834;2023-03-11T09:54:37;92763.88;;;18.99;42.08
48035;BME280;33812;46.480;6.834;2023-03-11T09:58:42;92765.00;;;19.01;42.23
48035;BME280;33812;46.480;6.834;2023-03-11T10:02:45;92763.88;;;18.99;42.15
48035;BME280;33812;46.480;6.834;2023-03-11T10:06:48;92770.41;;;18.92;42.32
48035;BME280;33812;46.480;6.834;2023-03-11T10:10:58;92771.06;;;18.96;42.47
48035;BME280;33812;46.480;6.834;2023-03-11T10:15:12;92760.69;;;19.00;43.00
48035;BME280;33812;46.480;6.834;2023-03-11T10:19:26;92771.28;;;19.02;42.96
48035;BME280;33812;46.480;6.834;2023-03-11T10:23:36;92772.91;;;18.99;43.41
48035;BME280;33812;46.480;6.834;2023-03-11T10:27:48;92775.22;;;19.01;43.35
48035;BME280;33812;46.480;6.834;2023-03-11T10:31:55;92785.78;;;19.02;43.10
48035;BME280;33812;46.480;6.834;2023-03-11T10:36:03;92793.72;;;19.00;42.78
48035;BME280;33812;46.480;6.834;2023-03-11T10:40:18;92790.97;;;19.00;42.90
48035;BME280;33812;46.480;6.834;2023-03-11T10:44:26;92799.22;;;19.00;42.98
48035;BME280;33812;46.480;6.834;2023-03-11T10:48:29;92788.53;;;19.02;43.06
48035;BME280;33812;46.480;6.834;2023-03-11T10:52:36;92801.41;;;19.05;42.52
48035;BME280;33812;46.480;6.834;2023-03-11T10:56:42;92798.34;;;19.03;44.28
48035;BME280;33812;46.480;6.834;2023-03-11T11:01:10;92802.97;;;19.06;44.50
48035;BME280;33812;46.480;6.834;2023-03-11T11:05:26;92790.72;;;19.07;44.52
48035;BME280;33812;46.480;6.834;2023-03-11T11:09:30;92785.53;;;19.09;46.61
48035;BME280;33812;46.480;6.834;2023-03-11T11:13:36;92783.56;;;19.10;47.42
48035;BME280;33812;46.480;6.834;2023-03-11T11:17:38;92792.94;;;19.13;47.94
48035;BME280;33812;46.480;6.834;2023-03-11T11:21:42;92798.75;;;19.15;48.12
48035;BME280;33812;46.480;6.834;2023-03-11T11:25:56;92800.00;;;18.78;45.00
48035;BME280;33812;46.480;6.834;2023-03-11T11:30:13;92806.28;;;19.01;45.81
48035;BME280;33812;46.480;6.834;2023-03-11T11:34:27;92806.03;;;19.08;46.11
48035;BME280;33812;46.480;6.834;2023-03-11T11:38:31;92805.59;;;19.10;46.44
48035;BME280;33812;46.480;6.834;2023-03-11T11:42:43;92817.72;;;19.13;46.21
48035;BME280;33812;46.480;6.834;2023-03-11T11:46:51;92813.75;;;19.14;46.25
48035;BME280;33812;46.480;6.834;2023-03-11T11:50:58;92808.25;;;19.14;46.43
48035;BME280;33812;46.480;6.834;2023-03-11T11:55:06;92805.78;;;19.16;45.72
48035;BME280;33812;46.480;6.834;2023-03-11T11:59:16;92797.53;;;19.16;45.57
48035;BME280;33812;46.480;6.834;2023-03-11T12:03:51;92796.34;;;19.17;45.41
48035;BME280;33812;46.480;6.834;2023-03-11T12:08:04;92805.78;;;19.16;45.43
48035;BME280;33812;46.480;6.834;2023-03-11T12:12:17;92803.59;;;19.11;45.41
48035;BME280;33812;46.480;6.834;2023-03-11T12:16:39;92814.50;;;19.14;45.11
48035;BME280;33812;46.480;6.834;2023-03-11T12:20:44;92806.25;;;19.14;45.50
48035;BME280;33812;46.480;6.834;2023-03-11T12:25:00;92799.53;;;19.15;45.27
48035;BME280;33812;46.480;6.834;2023-03-11T12:29:14;92793.56;;;19.17;45.06
48035;BME280;33812;46.480;6.834;2023-03-11T12:33:26;92789.28;;;19.16;44.93
48035;BME280;33812;46.480;6.834;2023-03-11T12:37:30;92789.59;;;19.18;44.87
48035;BME280;33812;46.480;6.834;2023-03-11T12:41:33;92779.81;;;19.17;45.09
48035;BME280;33812;46.480;6.834;2023-03-11T12:45:47;92786.38;;;19.19;44.83
48035;BME280;33812;46.480;6.834;2023-03-11T12:49:52;92792.22;;;19.21;44.63
48035;BME280;33812;46.480;6.834;2023-03-11T12:53:55;92787.50;;;19.22;44.54
48035;BME280;33812;46.480;6.834;2023-03-11T12:58:04;92776.47;;;19.22;44.97
48035;BME280;33812;46.480;6.834;2023-03-11T13:02:22;92785.63;;;19.19;44.39
48035;BME280;33812;46.480;6.834;2023-03-11T13:11:35;92779.81;;;19.17;44.35
48035;BME280;33812;46.480;6.834;2023-03-11T13:15:38;92783.00;;;19.15;44.17
48035;BME280;33812;46.480;6.834;2023-03-11T13:19:51;92768.78;;;19.17;44.44
48035;BME280;33812;46.480;6.834;2023-03-11T13:28:58;92786.22;;;19.14;44.19
48035;BME280;33812;46.480;6.834;2023-03-11T13:33:18;92794.78;;;19.16;43.62
48035;BME280;33812;46.480;6.834;2023-03-11T13:37:28;92792.34;;;19.18;44.35
48035;BME280;33812;46.480;6.834;2023-03-11T13:41:40;92798.75;;;19.15;43.81
48035;BME280;33812;46.480;6.834;2023-03-11T13:45:49;92804.28;;;19.15;43.54
48035;BME280;33812;46.480;6.834;2023-03-11T13:49:59;92809.78;;;19.15;43.58
48035;BME280;33812;46.480;6.834;2023-03-11T13:54:18;92813.31;;;19.15;43.60
48035;BME280;33812;46.480;6.834;2023-03-11T13:58:25;92806.56;;;19.16;43.94
48035;BME280;33812;46.480;6.834;2023-03-11T14:02:30;92830.91;;;19.18;43.86
48035;BME280;33812;46.480;6.834;2023-03-11T14:06:33;92830.16;;;19.17;44.00
48035;BME280;33812;46.480;6.834;2023-03-11T14:10:36;92826.31;;;19.15;43.79
48035;BME280;33812;46.480;6.834;2023-03-11T14:14:44;92833.34;;;19.16;43.24
48035;BME280;33812;46.480;6.834;2023-03-11T14:19:01;92837.44;;;19.11;43.33
48035;BME280;33812;46.480;6.834;2023-03-11T14:23:03;92838.22;;;19.12;43.45
48035;BME280;33812;46.480;6.834;2023-03-11T14:27:07;92841.31;;;19.14;42.93
48035;BME280;33812;46.480;6.834;2023-03-11T14:31:25;92845.25;;;19.13;42.65
48035;BME280;33812;46.480;6.834;2023-03-11T14:35:32;92845.72;;;19.11;43.58
48035;BME280;33812;46.480;6.834;2023-03-11T14:39:36;92853.16;;;19.11;43.16
48035;BME280;33812;46.480;6.834;2023-03-11T14:43:41;92839.38;;;19.11;42.95
48035;BME280;33812;46.480;6.834;2023-03-11T14:47:47;92843.72;;;19.12;43.19
48035;BME280;33812;46.480;6.834;2023-03-11T14:51:55;92849.56;;;19.14;42.80
48035;BME280;33812;46.480;6.834;2023-03-11T14:56:00;92856.28;;;19.13;44.06
48035;BME280;33812;46.480;6.834;2023-03-11T15:00:04;92867.28;;;19.13;43.32
48035;BME280;33812;46.480;6.834;2023-03-11T15:04:10;92856.28;;;19.13;43.62
48035;BME280;33812;46.480;6.834;2023-03-11T15:08:16;92852.31;;;19.14;43.81
48035;BME280;33812;46.480;6.834;2023-03-11T15:12:31;92842.94;;;19.11;43.42
48035;BME280;33812;46.480;6.834;2023-03-11T15:16:36;92839.75;;;19.13;43.20
48035;BME280;33812;46.480;6.834;2023-03-11T15:20:38;92852.31;;;19.14;43.14
48035;BME280;33812;46.480;6.834;2023-03-11T15:24:41;92859.81;;;19.13;42.96
48035;BME280;33812;46.480;6.834;2023-03-11T15:28:43;92862.56;;;19.13;43.09
48035;BME280;33812;46.480;6.834;2023-03-11T15:32:45;92864.88;;;19.15;43.81
48035;BME280;33812;46.480;6.834;2023-03-11T15:37:03;92869.94;;;19.16;43.54
48035;BME280;33812;46.480;6.834;2023-03-11T15:41:10;92877.84;;;19.14;44.45
48035;BME280;33812;46.480;6.834;2023-03-11T15:45:15;92882.91;;;19.16;44.20
48035;BME280;33812;46.480;6.834;2023-03-11T15:49:20;92888.44;;;19.16;44.34
48035;BME280;33812;46.480;6.834;2023-03-11T15:53:23;92889.66;;;19.15;44.14
48035;BME280;33812;46.480;6.834;2023-03-11T15:57:28;92884.16;;;19.15;44.18
48035;BME280;33812;46.480;6.834;2023-03-11T16:01:31;92887.69;;;19.15;43.59
48035;BME280;33812;46.480;6.834;2023-03-11T16:05:33;92890.88;;;19.14;43.95
48035;BME280;33812;46.480;6.834;2023-03-11T16:09:35;92906.66;;;18.87;42.10
48035;BME280;33812;46.480;6.834;2023-03-11T16:13:38;92897.50;;;19.03;43.44
48035;BME280;33812;46.480;6.834;2023-03-11T16:17:42;92917.31;;;19.11;43.67
48035;BME280;33812;46.480;6.834;2023-03-11T16:21:46;92914.13;;;19.13;43.61
48035;BME280;33812;46.480;6.834;2023-03-11T16:25:50;92902.53;;;19.18;44.03
48035;BME280;33812;46.480;6.834;2023-03-11T16:29:54;92911.91;;;19.20;44.26
48035;BME280;33812;46.480;6.834;2023-03-11T16:33:56;92912.69;;;19.21;44.02
48035;BME280;33812;46.480;6.834;2023-03-11T16:37:58;92926.88;;;19.19;44.56
48035;BME280;33812;46.480;6.834;2023-03-11T16:42:04;92935.47;;;19.21;44.16
48035;BME280;33812;46.480;6.834;2023-03-11T16:46:08;92942.97;;;19.21;43.88
48035;BME280;33812;46.480;6.834;2023-03-11T16:50:11;92944.50;;;19.22;44.35
48035;BME280;33812;46.480;6.834;2023-03-11T16:54:12;92952.00;;;19.21;43.67
48035;BME280;33812;46.480;6.834;2023-03-11T16:58:16;92959.06;;;19.23;44.29
48035;BME280;33812;46.480;6.834;2023-03-11T17:02:20;92953.53;;;19.23;44.14
48035;BME280;33812;46.480;6.834;2023-03-11T17:06:22;92965.66;;;19.25;44.59
48035;BME280;33812;46.480;6.834;2023-03-11T17:10:23;92956.59;;;19.25;44.11
48035;BME280;33812;46.480;6.834;2023-03-11T17:14:25;92963.78;;;19.22;43.93
48035;BME280;33812;46.480;6.834;2023-03-11T17:18:29;92974.16;;;19.18;43.74
48035;BME280;33812;46.480;6.834;2023-03-11T17:22:31;92971.84;;;19.16;43.51
48035;BME280;33812;46.480;6.834;2023-03-11T17:26:33;92964.81;;;19.15;43.51
48035;BME280;33812;46.480;6.834;2023-03-11T17:30:34;92964.34;;;19.17;44.10
48035;BME280;33812;46.480;6.834;2023-03-11T17:34:44;92973.50;;;19.14;43.58
48035;BME280;33812;46.480;6.834;2023-03-11T17:38:51;92980.53;;;19.15;45.51
48035;BME280;33812;46.480;6.834;2023-03-11T17:42:53;92978.47;;;19.19;46.16
48035;BME280;33812;46.480;6.834;2023-03-11T17:46:54;92992.22;;;19.19;45.88
48035;BME280;33812;46.480;6.834;2023-03-11T17:50:58;92999.25;;;19.20;46.13
48035;BME280;33812;46.480;6.834;2023-03-11T17:54:59;93001.25;;;19.19;46.38
48035;BME280;33812;46.480;6.834;2023-03-11T17:59:01;92998.06;;;19.21;46.56
48035;BME280;33812;46.480;6.834;2023-03-11T18:03:03;92996.84;;;19.22;46.88
48035;BME280;33812;46.480;6.834;2023-03-11T18:07:06;93018.09;;;19.21;46.31
48035;BME280;33812;46.480;6.834;2023-03-11T18:11:11;93033.88;;;19.21;46.28
48035;BME280;33812;46.480;6.834;2023-03-11T18:15:13;93034.63;;;19.21;46.97
48035;BME280;33812;46.480;6.834;2023-03-11T18:19:18;93040.59;;;19.20;46.89
48035;BME280;33812;46.480;6.834;2023-03-11T18:23:21;93046.09;;;19.20;46.69
48035;BME280;33812;46.480;6.834;2023-03-11T18:27:23;93042.44;;;19.23;46.22
48035;BME280;33812;46.480;6.834;2023-03-11T18:31:26;93047.22;;;19.23;46.66
48035;BME280;33812;46.480;6.834;2023-03-11T18:35:28;93051.94;;;19.22;46.24
48035;BME280;33812;46.480;6.834;2023-03-11T18:39:31;93053.16;;;19.21;46.32
48035;BME280;33812;46.480;6.834;2023-03-11T18:43:33;93051.16;;;19.21;46.27
48035;BME280;33812;46.480;6.834;2023-03-11T18:47:35;93063.72;;;19.23;45.88
48035;BME280;33812;46.480;6.834;2023-03-11T18:51:37;93053.47;;;19.23;46.25
48035;BME280;33812;46.480;6.834;2023-03-11T18:55:40;93044.34;;;19.26;46.42
48035;BME280;33812;46.480;6.834;2023-03-11T18:59:42;93042.78;;;19.25;46.35
48035;BME280;33812;46.480;6.834;2023-03-11T19:03:47;93060.53;;;19.24;46.52
48035;BME280;33812;46.480;6.834;2023-03-11T19:07:50;93058.22;;;19.23;44.76
48035;BME280;33812;46.480;6.834;2023-03-11T19:11:53;93062.06;;;19.25;44.97
48035;BME280;33812;46.480;6.834;2023-03-11T19:15:58;93086.41;;;19.27;45.31
48035;BME280;33812;46.480;6.834;2023-03-11T19:20:00;93087.19;;;19.27;45.11
48035;BME280;33812;46.480;6.834;2023-03-11T19:24:14;93084.09;;;19.25;45.61
48035;BME280;33812;46.480;6.834;2023-03-11T19:28:18;93078.47;;;19.29;45.49
48035;BME280;33812;46.480;6.834;2023-03-11T19:32:21;93089.94;;;19.27;45.78
48035;BME280;33812;46.480;6.834;2023-03-11T19:36:23;93093.78;;;19.30;46.37
48035;BME280;33812;46.480;6.834;2023-03-11T19:40:31;93098.56;;;19.29;46.20
48035;BME280;33812;46.480;6.834;2023-03-11T19:44:36;93109.56;;;19.29;45.63
48035;BME280;33812;46.480;6.834;2023-03-11T19:48:38;93104.38;;;18.36;40.96
48035;BME280;33812;46.480;6.834;2023-03-11T19:52:40;93106.56;;;18.12;40.55
48035;BME280;33812;46.480;6.834;2023-03-11T19:56:42;93101.59;;;18.79;42.06
48035;BME280;33812;46.480;6.834;2023-03-11T20:00:48;93093.13;;;19.00;41.63
48035;BME280;33812;46.480;6.834;2023-03-11T20:04:50;93100.28;;;19.10;44.00
48035;BME280;33812;46.480;6.834;2023-03-11T20:08:52;93106.38;;;19.18;46.15
48035;BME280;33812;46.480;6.834;2023-03-11T20:12:54;93122.44;;;19.19;45.96
48035;BME280;33812;46.480;6.834;2023-03-11T20:16:57;93134.59;;;19.22;46.75
48035;BME280;33812;46.480;6.834;2023-03-11T20:20:58;93139.31;;;19.21;47.95
48035;BME280;33812;46.480;6.834;2023-03-11T20:25:05;93133.34;;;19.23;48.06
48035;BME280;33812;46.480;6.834;2023-03-11T20:29:07;93129.41;;;19.24;48.39
48035;BME280;33812;46.480;6.834;2023-03-11T20:33:10;93132.50;;;19.26;48.18
48035;BME280;33812;46.480;6.834;2023-03-11T20:37:12;93133.34;;;19.23;48.32
48035;BME280;33812;46.480;6.834;2023-03-11T20:41:13;93149.03;;;19.26;48.91
48035;BME280;33812;46.480;6.834;2023-03-11T20:45:17;93143.94;;;19.25;49.17
48035;BME280;33812;46.480;6.834;2023-03-11T20:49:22;93160.34;;;19.28;48.82
48035;BME280;33812;46.480;6.834;2023-03-11T20:53:23;93159.59;;;19.28;48.80
48035;BME280;33812;46.480;6.834;2023-03-11T20:57:25;93172.16;;;19.29;48.29
48035;BME280;33812;46.480;6.834;2023-03-11T21:01:29;93172.94;;;19.29;48.21
48035;BME280;33812;46.480;6.834;2023-03-11T21:05:35;93163.09;;;19.28;48.40
48035;BME280;33812;46.480;6.834;2023-03-11T21:09:39;93168.63;;;19.28;48.17
48035;BME280;33812;46.480;6.834;2023-03-11T21:13:41;93168.19;;;19.30;48.16
48035;BME280;33812;46.480;6.834;2023-03-11T21:17:43;93176.44;;;19.30;47.87
48035;BME280;33812;46.480;6.834;2023-03-11T21:21:46;93175.25;;;19.31;48.01
48035;BME280;33812;46.480;6.834;2023-03-11T21:25:56;93181.53;;;19.31;47.61
48035;BME280;33812;46.480;6.834;2023-03-11T21:29:58;93199.59;;;19.32;47.52
48035;BME280;33812;46.480;6.834;2023-03-11T21:34:02;93189.81;;;19.31;47.66
48035;BME280;33812;46.480;6.834;2023-03-11T21:38:05;93202.81;;;19.31;47.32
48035;BME280;33812;46.480;6.834;2023-03-11T21:42:07;93198.06;;;19.31;47.24
48035;BME280;33812;46.480;6.834;2023-03-11T21:46:11;93195.31;;;19.31;47.44